Terminal Aerodrome Forecast
Issued by NWS

Home | Current Version | Previous Version | Text Only | Print | Product List | Glossary On
Versions: 1 2 3 4 5 6 7 8 9 10 11 12 13
000
FTUS41 KPHI 032321
TAFPNE
TAF
KPNE 032321Z 0400/0424 22008KT P6SM FEW050
     FM040300 23006KT P6SM BKN080
     FM040800 25006KT P6SM SCT080
     FM041400 26010G18KT P6SM SCT050=

USA.gov is the U.S. government's official web portal to all federal, state and local government web resources and services.